Time;durP1;ratioP1;P1;durP2;ratioP2;P2;SDS_P1;SDS_P2;PMS_P1;PMS_P2;Temp;Humidity;BMP_temperature;BMP_pressure;BME280_temperature;BME280_humidity;BME280_pressure;Samples;Min_cycle;Max_cycle;Signal;HPM_P1;HPM_P2
2023/01/12 00:02:20;;;;;;;10.90;4.50;;;5.10;35.80;;;;;;5031599;28;20533;-51
2023/01/12 00:04:47;;;;;;;13.37;5.03;;;5.00;33.00;;;;;;5030910;28;20466;-52
2023/01/12 00:07:15;;;;;;;9.17;5.00;;;5.10;31.00;;;;;;5032368;28;20856;-52
2023/01/12 00:09:42;;;;;;;10.93;4.50;;;5.00;28.30;;;;;;5030919;28;20566;-53
2023/01/12 00:12:10;;;;;;;13.70;3.40;;;5.10;22.90;;;;;;5035277;28;20485;-52
2023/01/12 00:14:38;;;;;;;11.07;3.80;;;5.10;75.30;;;;;;5029023;28;20484;-51
2023/01/12 00:17:07;;;;;;;5.07;3.80;;;5.10;99.40;;;;;;5030900;28;20497;-52
2023/01/12 00:19:37;;;;;;;10.83;4.70;;;5.20;99.90;;;;;;5031698;28;20505;-52
2023/01/12 00:22:08;;;;;;;11.53;4.10;;;5.20;99.90;;;;;;5012440;28;20876;-52
2023/01/12 00:24:36;;;;;;;10.03;3.37;;;5.30;99.90;;;;;;5021757;28;20467;-51
2023/01/12 00:27:05;;;;;;;7.77;3.40;;;5.30;99.90;;;;;;5031508;28;20497;-53
2023/01/12 00:29:32;;;;;;;7.00;3.07;;;5.20;99.90;;;;;;5030168;28;20520;-51
2023/01/12 00:31:59;;;;;;;17.40;4.60;;;5.30;99.90;;;;;;5029046;28;20524;-53
2023/01/12 00:34:26;;;;;;;10.13;3.50;;;5.30;99.90;;;;;;5031051;28;20458;-52
2023/01/12 00:36:55;;;;;;;11.60;3.73;;;5.20;99.90;;;;;;5031740;28;20447;-51
2023/01/12 00:39:22;;;;;;;8.93;3.70;;;5.30;99.90;;;;;;5030781;28;20518;-51
2023/01/12 00:47:18;;;;;;;7.23;4.00;;;5.30;99.90;;;;;;5029613;28;20506;-52
2023/01/12 00:49:45;;;;;;;10.60;4.20;;;5.30;99.90;;;;;;5031303;28;20501;-52
2023/01/12 00:52:15;;;;;;;9.83;4.30;;;5.20;99.90;;;;;;5030216;28;20531;-53
2023/01/12 00:54:42;;;;;;;6.90;3.80;;;5.30;99.90;;;;;;5022795;28;20489;-52
2023/01/12 00:57:09;;;;;;;8.40;3.97;;;5.30;99.90;;;;;;5031528;28;20505;-51
2023/01/12 00:59:36;;;;;;;8.30;3.53;;;5.40;99.90;;;;;;5030104;28;21022;-51
2023/01/12 01:02:03;;;;;;;18.90;3.53;;;5.30;99.90;;;;;;5031417;28;20473;-52
2023/01/12 01:04:30;;;;;;;10.37;3.67;;;5.40;99.90;;;;;;5028732;28;20961;-52
2023/01/12 01:06:56;;;;;;;5.67;3.07;;;5.30;99.90;;;;;;5031417;28;20477;-52
2023/01/12 01:09:24;;;;;;;9.63;3.47;;;5.30;99.90;;;;;;5028976;28;20521;-51
2023/01/12 01:11:51;;;;;;;6.77;3.67;;;5.20;99.90;;;;;;5030413;28;20529;-51
2023/01/12 01:14:17;;;;;;;11.80;4.40;;;5.30;99.90;;;;;;5028401;28;22067;-52
2023/01/12 01:16:44;;;;;;;6.63;3.80;;;5.30;99.90;;;;;;5024590;28;20471;-51
2023/01/12 01:19:11;;;;;;;11.37;4.37;;;5.30;99.90;;;;;;5027118;28;20916;-52
2023/01/12 01:21:37;;;;;;;9.87;4.07;;;5.30;99.90;;;;;;5027350;28;20462;-51
2023/01/12 01:24:04;;;;;;;11.40;3.80;;;5.40;99.90;;;;;;5027008;28;21142;-52
2023/01/12 01:26:32;;;;;;;8.73;3.80;;;5.30;99.90;;;;;;5032230;28;20504;-51
2023/01/12 01:28:59;;;;;;;10.80;3.73;;;5.30;99.90;;;;;;5023598;28;21062;-51
2023/01/12 01:31:26;;;;;;;7.80;4.00;;;5.40;99.90;;;;;;5027991;28;20893;-52
2023/01/12 01:33:53;;;;;;;8.03;3.63;;;5.40;99.90;;;;;;5027165;28;20960;-51
2023/01/12 01:36:20;;;;;;;9.10;3.60;;;5.40;99.90;;;;;;5027078;28;20505;-52
2023/01/12 01:38:48;;;;;;;7.70;3.60;;;5.40;99.90;;;;;;5026341;28;20891;-53
2023/01/12 01:41:19;;;;;;;6.23;3.80;;;5.40;99.90;;;;;;5026882;28;20535;-53
2023/01/12 01:43:53;;;;;;;8.67;3.40;;;5.40;99.90;;;;;;5028259;28;20494;-53
2023/01/12 01:46:29;;;;;;;6.37;2.70;;;5.40;99.90;;;;;;5030252;28;20494;-52
2023/01/12 01:48:56;;;;;;;6.13;3.00;;;5.50;99.90;;;;;;5021059;28;20532;-52
2023/01/12 01:51:23;;;;;;;9.80;3.40;;;5.60;99.90;;;;;;5032607;28;20801;-53
2023/01/12 01:53:50;;;;;;;7.87;3.27;;;5.60;99.90;;;;;;5027551;28;20501;-53
2023/01/12 01:56:21;;;;;;;7.37;3.53;;;5.70;99.90;;;;;;5028375;28;20505;-52
2023/01/12 01:58:54;;;;;;;3.63;2.43;;;5.70;99.90;;;;;;5026626;28;20539;-52
2023/01/12 02:01:20;;;;;;;7.73;2.93;;;5.80;99.90;;;;;;5028212;28;20497;-52
2023/01/12 02:03:47;;;;;;;5.70;2.43;;;5.80;99.90;;;;;;5028619;28;20586;-52
2023/01/12 02:06:15;;;;;;;9.03;2.70;;;5.80;99.90;;;;;;5030928;28;20919;-52
2023/01/12 02:08:46;;;;;;;8.73;3.10;;;5.80;99.90;;;;;;5024288;28;20486;-52
2023/01/12 02:16:48;;;;;;;7.30;2.60;;;5.70;99.90;;;;;;5033837;28;20970;-53
2023/01/12 02:19:32;;;;;;;9.13;3.20;;;5.70;99.90;;;;;;5027739;28;21026;-54
2023/01/12 02:22:35;;;;;;;7.20;2.67;;;5.70;99.90;;;;;;5025104;28;20500;-52
2023/01/12 02:25:24;;;;;;;11.17;3.13;;;5.70;99.90;;;;;;5029101;28;20882;-52
2023/01/12 02:28:17;;;;;;;5.67;2.47;;;5.70;99.90;;;;;;5024692;28;20519;-52
2023/01/12 02:31:05;;;;;;;7.10;2.50;;;5.70;99.90;;;;;;4990544;28;20552;-52
2023/01/12 02:33:41;;;;;;;7.53;2.90;;;5.80;99.90;;;;;;5029807;28;20580;-51
2023/01/12 02:36:15;;;;;;;7.80;2.60;;;5.80;99.90;;;;;;5024187;28;20504;-53
2023/01/12 02:38:49;;;;;;;4.00;2.33;;;5.80;99.90;;;;;;5025011;28;21079;-52
2023/01/12 02:42:39;;;;;;;10.50;2.67;;;5.70;99.90;;;;;;5031581;28;20549;-52
2023/01/12 02:44:18;;;;;;;14.47;2.57;;;5.80;99.90;;;;;;5029519;28;21025;-52
2023/01/12 02:46:50;;;;;;;6.10;2.20;;;5.80;99.90;;;;;;5027439;28;20461;-53
2023/01/12 02:49:20;;;;;;;11.10;2.90;;;5.80;99.90;;;;;;5031491;28;20583;-52
2023/01/12 02:51:53;;;;;;;8.87;2.67;;;5.80;99.90;;;;;;5033943;28;20837;-52
2023/01/12 02:54:22;;;;;;;11.37;2.73;;;5.90;99.90;;;;;;5026208;28;20454;-52
2023/01/12 02:56:52;;;;;;;16.73;2.70;;;5.80;99.90;;;;;;5026695;28;20548;-51
2023/01/12 02:59:22;;;;;;;9.83;2.73;;;5.80;99.90;;;;;;5027015;28;20561;-52
2023/01/12 03:01:52;;;;;;;8.27;2.30;;;5.80;99.90;;;;;;5025502;28;20544;-52
2023/01/12 03:04:20;;;;;;;17.60;2.90;;;5.90;99.90;;;;;;5029510;28;21096;-52
2023/01/12 03:07:23;;;;;;;8.00;4.03;;;5.90;99.90;;;;;;5029258;28;20964;-51
2023/01/12 03:09:54;;;;;;;13.10;2.40;;;5.90;99.90;;;;;;5027835;28;21030;-52
2023/01/12 03:12:25;;;;;;;6.23;2.73;;;5.90;99.90;;;;;;5026286;28;20552;-52
2023/01/12 03:14:54;;;;;;;10.83;2.77;;;5.90;99.90;;;;;;5024142;28;20583;-52
2023/01/12 03:17:29;;;;;;;11.37;3.07;;;5.90;99.90;;;;;;5027224;28;20538;-52
2023/01/12 03:20:02;;;;;;;13.73;3.27;;;5.90;99.90;;;;;;5027663;28;21033;-53
2023/01/12 03:22:32;;;;;;;10.27;3.43;;;5.90;99.90;;;;;;5026505;28;21496;-52
2023/01/12 03:25:01;;;;;;;7.30;2.63;;;5.80;99.90;;;;;;5030548;28;21046;-51
2023/01/12 03:27:34;;;;;;;8.80;2.33;;;5.90;99.90;;;;;;5025626;28;20498;-51
2023/01/12 03:30:06;;;;;;;8.30;2.20;;;5.90;99.90;;;;;;5024668;28;20502;-51
2023/01/12 03:32:35;;;;;;;10.27;2.80;;;5.90;99.90;;;;;;5026385;28;20553;-51
2023/01/12 03:35:01;;;;;;;4.77;1.93;;;5.90;99.90;;;;;;5033278;28;20545;-51
2023/01/12 03:37:32;;;;;;;8.50;2.33;;;5.90;99.90;;;;;;5028857;28;20556;-51
2023/01/12 03:40:01;;;;;;;8.37;2.43;;;5.80;99.90;;;;;;5029283;28;21875;-53
2023/01/12 03:42:33;;;;;;;8.93;2.10;;;5.80;99.90;;;;;;5028402;28;20552;-52
2023/01/12 03:45:11;;;;;;;10.87;2.87;;;5.80;99.90;;;;;;5028567;28;20580;-52
2023/01/12 03:47:41;;;;;;;10.93;2.97;;;5.90;99.90;;;;;;5028208;28;21019;-52
2023/01/12 03:50:13;;;;;;;27.10;2.47;;;5.80;99.90;;;;;;5031889;28;20914;-54
2023/01/12 03:52:41;;;;;;;6.63;2.43;;;5.90;99.90;;;;;;5025449;28;20630;-51
2023/01/12 03:55:12;;;;;;;4.50;2.50;;;5.90;99.90;;;;;;5028686;28;20548;-52
2023/01/12 03:57:39;;;;;;;8.97;2.40;;;5.90;99.90;;;;;;5028260;28;20474;-51
2023/01/12 04:00:10;;;;;;;6.20;2.83;;;6.00;99.90;;;;;;5023028;28;20490;-51
2023/01/12 04:02:38;;;;;;;6.07;3.17;;;5.90;99.90;;;;;;5025007;28;20544;-53
2023/01/12 04:05:06;;;;;;;4.73;2.07;;;6.00;99.90;;;;;;5028954;28;20573;-53
2023/01/12 04:07:33;;;;;;;4.90;1.87;;;6.00;99.90;;;;;;5028992;28;20536;-52
2023/01/12 04:09:59;;;;;;;11.83;2.90;;;6.00;99.90;;;;;;5024750;28;20561;-52
2023/01/12 04:12:26;;;;;;;10.03;2.60;;;6.00;99.90;;;;;;5028076;28;20906;-52
2023/01/12 04:14:52;;;;;;;11.97;2.50;;;6.00;99.90;;;;;;5026647;28;21018;-52
2023/01/12 04:17:23;;;;;;;7.77;2.27;;;6.10;99.90;;;;;;5026422;28;20546;-52
2023/01/12 04:19:51;;;;;;;9.97;2.10;;;6.10;99.90;;;;;;5023169;28;20551;-52
2023/01/12 04:25:04;;;;;;;9.70;2.03;;;6.10;99.90;;;;;;5022897;28;20489;-52
2023/01/12 04:27:31;;;;;;;11.43;2.60;;;6.10;99.90;;;;;;5020754;28;20573;-51
2023/01/12 04:29:57;;;;;;;9.03;2.77;;;6.10;99.90;;;;;;5020206;28;20505;-51
2023/01/12 04:32:24;;;;;;;8.97;2.80;;;6.10;99.90;;;;;;5027375;28;20552;-53
2023/01/12 04:34:52;;;;;;;4.60;1.77;;;6.10;99.90;;;;;;5028620;28;21027;-51
2023/01/12 04:37:18;;;;;;;16.20;2.90;;;6.10;99.90;;;;;;5024647;28;20555;-51
2023/01/12 04:39:45;;;;;;;9.57;3.20;;;6.20;99.90;;;;;;5028662;28;20976;-51
2023/01/12 04:44:52;;;;;;;8.23;2.03;;;6.20;99.90;;;;;;5026886;28;20475;-51
2023/01/12 04:47:18;;;;;;;8.87;2.33;;;6.20;99.90;;;;;;5028970;28;20557;-51
2023/01/12 04:49:45;;;;;;;4.73;2.23;;;6.20;99.90;;;;;;5028261;28;20935;-52
2023/01/12 04:52:12;;;;;;;7.50;2.60;;;6.20;99.90;;;;;;5038563;28;20592;-53
2023/01/12 04:54:39;;;;;;;4.30;2.40;;;6.20;99.90;;;;;;5025450;28;20545;-53
2023/01/12 04:57:05;;;;;;;7.50;4.03;;;6.30;99.90;;;;;;5029672;28;20552;-51
2023/01/12 04:59:32;;;;;;;9.90;2.00;;;6.30;99.90;;;;;;5023744;28;20574;-51
2023/01/12 05:01:58;;;;;;;12.63;2.20;;;6.30;99.90;;;;;;5028095;28;20466;-51
2023/01/12 05:04:25;;;;;;;6.03;1.80;;;6.30;99.90;;;;;;5028859;28;20572;-52
2023/01/12 05:06:52;;;;;;;8.57;2.33;;;6.40;99.90;;;;;;5028125;28;20469;-52
2023/01/12 05:12:04;;;;;;;9.27;2.50;;;6.50;99.90;;;;;;5029680;28;20461;-51
2023/01/12 05:14:30;;;;;;;4.50;1.80;;;6.50;99.90;;;;;;5028672;28;20546;-51
2023/01/12 05:16:58;;;;;;;7.83;2.97;;;6.50;99.90;;;;;;5017862;28;20493;-52
2023/01/12 05:19:24;;;;;;;9.90;2.40;;;6.50;86.50;;;;;;5029510;28;20540;-52
2023/01/12 05:21:51;;;;;;;10.37;2.00;;;6.60;24.60;;;;;;5028254;28;20464;-51
2023/01/12 05:24:19;;;;;;;7.00;2.70;;;6.60;27.60;;;;;;5032122;28;20568;-53
2023/01/12 05:26:46;;;;;;;7.03;2.20;;;6.70;32.20;;;;;;5026801;28;20549;-51
2023/01/12 05:29:12;;;;;;;7.70;2.20;;;6.60;25.80;;;;;;5026138;28;20581;-52
2023/01/12 05:31:39;;;;;;;7.50;2.10;;;6.70;20.60;;;;;;5030157;28;20589;-52
2023/01/12 05:34:06;;;;;;;3.40;1.73;;;6.80;23.80;;;;;;5027523;28;20470;-54
2023/01/12 05:36:32;;;;;;;6.70;2.10;;;6.90;37.30;;;;;;5026821;28;20561;-51
2023/01/12 05:38:59;;;;;;;10.80;3.00;;;6.90;42.10;;;;;;5030679;28;20588;-52
2023/01/12 05:41:27;;;;;;;9.43;2.53;;;6.90;40.00;;;;;;5029175;28;20457;-52
2023/01/12 05:43:53;;;;;;;14.63;2.33;;;6.90;48.00;;;;;;5031519;28;20519;-52
2023/01/12 05:46:22;;;;;;;3.90;2.10;;;6.90;43.50;;;;;;5028977;28;20959;-51
2023/01/12 05:48:50;;;;;;;6.20;2.30;;;6.90;42.10;;;;;;5028912;28;20525;-52
2023/01/12 05:51:17;;;;;;;7.00;2.40;;;6.90;40.80;;;;;;5030301;28;20557;-51
2023/01/12 05:53:44;;;;;;;9.70;3.80;;;6.90;45.10;;;;;;5029156;28;20556;-52
2023/01/12 05:56:15;;;;;;;7.63;2.40;;;7.00;45.40;;;;;;5028543;28;20567;-51
2023/01/12 05:58:43;;;;;;;5.57;1.80;;;7.00;52.60;;;;;;5029568;28;20564;-51
2023/01/12 06:01:10;;;;;;;6.80;2.10;;;7.10;55.80;;;;;;5030161;28;20552;-52
2023/01/12 06:03:37;;;;;;;9.23;2.47;;;7.10;54.60;;;;;;5024957;28;20520;-52
2023/01/12 06:06:04;;;;;;;6.53;1.70;;;7.10;56.60;;;;;;5028326;28;20515;-51
2023/01/12 06:08:31;;;;;;;9.17;2.50;;;7.20;55.50;;;;;;5031652;28;20558;-52
2023/01/12 06:11:00;;;;;;;9.17;2.07;;;7.10;55.80;;;;;;5030741;28;20564;-52
2023/01/12 06:16:12;;;;;;;2.77;1.80;;;7.20;58.60;;;;;;5029435;28;20596;-51
2023/01/12 06:18:40;;;;;;;5.70;1.97;;;7.20;55.50;;;;;;5027703;28;20591;-52
2023/01/12 06:21:09;;;;;;;8.07;2.20;;;7.20;59.20;;;;;;5031319;28;20544;-51
2023/01/12 06:23:36;;;;;;;7.47;1.90;;;7.20;57.20;;;;;;5028099;28;20548;-51
2023/01/12 06:26:04;;;;;;;7.07;2.13;;;7.30;66.00;;;;;;5027534;28;20601;-51
2023/01/12 06:28:31;;;;;;;6.73;2.87;;;7.30;64.50;;;;;;5026986;28;20582;-51
2023/01/12 06:30:59;;;;;;;4.03;2.10;;;7.30;61.70;;;;;;5026923;28;20549;-51
2023/01/12 06:33:28;;;;;;;5.90;1.80;;;7.30;60.70;;;;;;5026861;28;20545;-51
2023/01/12 06:35:55;;;;;;;4.93;1.93;;;7.30;61.40;;;;;;5030569;28;20553;-51
2023/01/12 06:38:24;;;;;;;3.50;2.03;;;7.30;64.20;;;;;;5023174;28;20602;-52
2023/01/12 06:40:51;;;;;;;6.23;2.30;;;7.30;64.30;;;;;;5025084;28;20545;-51
2023/01/12 06:43:18;;;;;;;9.13;2.67;;;7.30;65.50;;;;;;5030213;28;20548;-52
2023/01/12 06:45:45;;;;;;;5.70;2.10;;;7.30;62.20;;;;;;5025445;28;20576;-51
2023/01/12 06:48:12;;;;;;;9.37;2.50;;;7.30;64.80;;;;;;5025709;28;20576;-53
2023/01/12 06:50:40;;;;;;;7.13;1.70;;;7.30;63.50;;;;;;5028736;28;20553;-52
2023/01/12 06:53:06;;;;;;;4.33;1.60;;;7.30;67.00;;;;;;5026499;28;21029;-50
2023/01/12 06:55:33;;;;;;;7.60;2.40;;;7.30;66.00;;;;;;5027884;28;20494;-51
2023/01/12 06:58:03;;;;;;;4.83;1.90;;;7.30;68.40;;;;;;5026450;28;20820;-51
2023/01/12 07:00:29;;;;;;;6.93;2.37;;;7.30;71.80;;;;;;5027230;28;20462;-51
2023/01/12 07:02:56;;;;;;;6.53;2.00;;;7.40;71.70;;;;;;5024115;28;20605;-51
2023/01/12 07:05:23;;;;;;;9.50;1.67;;;7.30;69.20;;;;;;5018949;28;21078;-50
2023/01/12 07:07:57;;;;;;;2.37;1.50;;;7.40;61.30;;;;;;5024325;28;20566;-51
2023/01/12 07:10:24;;;;;;;11.13;2.80;;;7.50;65.50;;;;;;5027338;28;20480;-52
2023/01/12 07:12:50;;;;;;;7.30;1.97;;;7.50;69.60;;;;;;5024279;28;20901;-52
2023/01/12 07:15:17;;;;;;;9.30;2.70;;;7.40;70.90;;;;;;5021033;28;20528;-52
2023/01/12 07:17:43;;;;;;;7.27;2.00;;;7.40;73.10;;;;;;5020091;28;21374;-52
2023/01/12 07:20:11;;;;;;;10.07;1.90;;;7.40;71.70;;;;;;5024257;28;21066;-52
2023/01/12 07:22:38;;;;;;;5.13;2.17;;;7.40;69.80;;;;;;5023815;28;20561;-52
2023/01/12 07:25:06;;;;;;;7.60;2.20;;;7.40;66.20;;;;;;5024106;28;20486;-52
2023/01/12 07:27:33;;;;;;;6.70;2.23;;;7.40;69.70;;;;;;5024139;28;20565;-52
2023/01/12 07:29:59;;;;;;;7.03;1.97;;;7.40;70.50;;;;;;5023734;28;20557;-52
2023/01/12 07:32:28;;;;;;;4.07;2.20;;;7.40;65.90;;;;;;5031738;28;20469;-52
2023/01/12 07:34:54;;;;;;;7.33;2.90;;;7.40;62.60;;;;;;5032587;28;20473;-52
2023/01/12 07:37:21;;;;;;;3.40;1.80;;;7.30;60.50;;;;;;5024651;28;20550;-51
2023/01/12 07:39:48;;;;;;;7.50;2.40;;;7.30;56.30;;;;;;5031157;28;20521;-50
2023/01/12 07:42:24;;;;;;;11.73;2.20;;;7.30;56.50;;;;;;5031144;28;20473;-51
2023/01/12 07:44:51;;;;;;;6.73;2.43;;;7.30;60.10;;;;;;5023188;28;20478;-51
2023/01/12 07:47:18;;;;;;;9.20;2.53;;;7.40;62.00;;;;;;5023204;28;22451;-51
2023/01/12 07:49:44;;;;;;;4.07;1.60;;;7.40;59.10;;;;;;5027589;28;21083;-51
2023/01/12 07:52:11;;;;;;;5.23;2.20;;;7.50;64.60;;;;;;5027988;28;20510;-51
2023/01/12 07:54:38;;;;;;;9.97;2.97;;;7.50;68.20;;;;;;5020776;28;20461;-50
2023/01/12 07:57:06;;;;;;;8.27;2.30;;;7.50;68.20;;;;;;5027017;28;20565;-50
2023/01/12 07:59:34;;;;;;;6.63;2.10;;;7.50;60.30;;;;;;5025155;28;20521;-53
2023/01/12 08:02:01;;;;;;;16.07;3.00;;;7.50;61.60;;;;;;5020979;28;20462;-51
2023/01/12 08:04:27;;;;;;;4.90;1.87;;;7.50;63.40;;;;;;5027897;28;20466;-51
2023/01/12 08:06:54;;;;;;;8.73;1.97;;;7.60;70.70;;;;;;5025133;28;20490;-52
2023/01/12 08:09:20;;;;;;;5.10;1.97;;;7.60;69.70;;;;;;5022726;28;20570;-51
2023/01/12 08:11:47;;;;;;;4.50;1.33;;;7.70;70.80;;;;;;5022684;28;20556;-51
2023/01/12 08:14:26;;;;;;;7.20;2.33;;;7.70;76.70;;;;;;5025249;28;20428;-51
2023/01/12 08:16:56;;;;;;;11.23;2.67;;;7.80;81.00;;;;;;5026164;28;20952;-51
2023/01/12 08:19:27;;;;;;;10.00;2.30;;;7.90;81.00;;;;;;5023201;28;20482;-50
2023/01/12 08:21:59;;;;;;;5.37;2.00;;;7.90;77.70;;;;;;5029809;28;20912;-51
2023/01/12 08:24:30;;;;;;;8.13;2.20;;;7.90;75.60;;;;;;5027844;28;20539;-50
2023/01/12 08:27:00;;;;;;;6.10;2.10;;;7.90;74.00;;;;;;5029389;28;20477;-51
2023/01/12 08:29:31;;;;;;;3.97;2.27;;;7.90;77.00;;;;;;5025595;28;20580;-51
2023/01/12 08:32:02;;;;;;;8.13;2.60;;;8.00;81.90;;;;;;5028859;28;20569;-51
2023/01/12 08:34:29;;;;;;;4.30;2.40;;;8.00;83.30;;;;;;5029535;28;20561;-50
2023/01/12 08:37:00;;;;;;;8.60;2.40;;;8.00;85.00;;;;;;5031415;28;20542;-52
2023/01/12 08:39:28;;;;;;;2.60;1.80;;;8.10;83.20;;;;;;5030553;28;20565;-52
2023/01/12 08:41:55;;;;;;;5.97;2.00;;;8.10;87.70;;;;;;5024898;28;20469;-51
2023/01/12 08:44:21;;;;;;;3.13;1.73;;;8.10;85.70;;;;;;5025654;28;20552;-52
2023/01/12 08:46:50;;;;;;;4.60;1.70;;;8.10;82.30;;;;;;5025800;28;20501;-51
2023/01/12 08:49:21;;;;;;;8.83;2.70;;;8.10;85.90;;;;;;5022857;28;20500;-51
2023/01/12 08:51:48;;;;;;;5.57;2.40;;;8.10;79.40;;;;;;5029854;28;20564;-51
2023/01/12 08:54:16;;;;;;;9.40;2.90;;;8.10;79.30;;;;;;5029846;28;20508;-52
2023/01/12 08:56:43;;;;;;;7.43;2.03;;;8.00;70.60;;;;;;5030586;28;20469;-51
2023/01/12 08:59:11;;;;;;;9.13;2.57;;;8.00;78.50;;;;;;5028969;28;20924;-53
2023/01/12 09:01:37;;;;;;;4.87;1.73;;;8.10;78.70;;;;;;5030216;28;20811;-52
2023/01/12 09:04:04;;;;;;;5.40;2.00;;;8.20;85.20;;;;;;5028336;28;20906;-51
2023/01/12 09:06:35;;;;;;;5.97;2.30;;;8.20;85.60;;;;;;5033088;28;20485;-53
2023/01/12 09:09:04;;;;;;;7.93;2.67;;;8.20;83.10;;;;;;5033950;28;20570;-52
2023/01/12 09:11:31;;;;;;;4.43;1.83;;;8.20;88.20;;;;;;5019134;28;20839;-52
2023/01/12 09:13:58;;;;;;;6.50;2.63;;;8.30;95.20;;;;;;5033116;28;20473;-52
2023/01/12 09:16:26;;;;;;;9.13;2.50;;;8.30;98.00;;;;;;5029891;28;20462;-52
2023/01/12 09:18:53;;;;;;;5.97;2.47;;;8.40;94.30;;;;;;5029626;28;20584;-52
2023/01/12 09:21:21;;;;;;;5.67;2.20;;;8.30;95.30;;;;;;5024550;28;20549;-52
2023/01/12 09:23:51;;;;;;;10.40;2.63;;;8.40;99.90;;;;;;5023754;28;20549;-52
2023/01/12 09:26:19;;;;;;;4.63;2.17;;;8.50;99.60;;;;;;5029179;28;20569;-51
2023/01/12 09:28:46;;;;;;;7.27;2.40;;;8.50;99.90;;;;;;5022100;28;20970;-52
2023/01/12 09:31:15;;;;;;;6.33;3.27;;;8.50;99.90;;;;;;5025056;28;20470;-53
2023/01/12 09:33:42;;;;;;;4.60;1.20;;;8.50;99.90;;;;;;5032716;28;20553;-51
2023/01/12 09:36:10;;;;;;;8.17;2.30;;;8.50;99.90;;;;;;5028412;28;20550;-52
2023/01/12 09:38:39;;;;;;;5.27;1.67;;;8.50;99.90;;;;;;5024295;28;20564;-53
2023/01/12 09:41:11;;;;;;;4.30;2.27;;;8.50;99.90;;;;;;5021950;28;20557;-52
2023/01/12 09:49:14;;;;;;;9.17;2.23;;;8.50;99.90;;;;;;5026505;28;20543;-50
2023/01/12 09:51:50;;;;;;;4.33;2.13;;;8.60;99.90;;;;;;5018931;28;20581;-52
2023/01/12 09:54:18;;;;;;;6.40;2.23;;;8.70;99.90;;;;;;5022814;28;20472;-52
2023/01/12 09:57:01;;;;;;;4.70;2.10;;;8.80;99.90;;;;;;5021036;28;20465;-52
2023/01/12 09:59:40;;;;;;;1.63;1.50;;;8.80;99.90;;;;;;5028645;28;20560;-52
2023/01/12 10:02:11;;;;;;;6.40;2.57;;;8.80;99.90;;;;;;5032437;28;20894;-52
2023/01/12 10:04:38;;;;;;;4.60;2.00;;;8.90;99.90;;;;;;5033497;28;20548;-54
2023/01/12 10:07:05;;;;;;;6.60;2.20;;;8.90;99.90;;;;;;5027883;28;20828;-51
2023/01/12 10:09:33;;;;;;;12.60;2.40;;;8.90;99.90;;;;;;5027651;28;20572;-51
2023/01/12 10:12:10;;;;;;;4.00;2.00;;;9.00;99.90;;;;;;5030881;28;20554;-52
2023/01/12 10:14:56;;;;;;;8.53;3.30;;;9.00;99.90;;;;;;5030889;28;20552;-52
2023/01/12 10:17:35;;;;;;;3.20;1.97;;;9.10;99.90;;;;;;5026612;28;20538;-52
2023/01/12 10:20:13;;;;;;;9.90;3.10;;;9.20;99.90;;;;;;5032515;28;20563;-52
2023/01/12 10:22:44;;;;;;;2.63;1.60;;;9.20;99.90;;;;;;5021942;28;20548;-52
2023/01/12 10:25:18;;;;;;;4.53;2.10;;;9.30;99.90;;;;;;5029600;28;20489;-51
2023/01/12 10:27:48;;;;;;;8.03;1.90;;;9.30;99.90;;;;;;5025123;28;21752;-52
2023/01/12 10:30:17;;;;;;;1.90;1.60;;;9.30;99.90;;;;;;5023586;28;20466;-52
2023/01/12 10:32:44;;;;;;;3.10;1.87;;;9.40;99.90;;;;;;5033365;28;20526;-52
2023/01/12 10:35:17;;;;;;;4.70;2.00;;;9.40;99.90;;;;;;5033341;28;20486;-53
2023/01/12 10:37:49;;;;;;;4.17;2.10;;;9.40;99.90;;;;;;5028157;28;20485;-54
2023/01/12 10:40:27;;;;;;;9.27;3.37;;;9.40;99.90;;;;;;5030466;28;20552;-52
2023/01/12 10:43:22;;;;;;;12.20;2.10;;;9.30;99.90;;;;;;5031800;28;20466;-52
2023/01/12 10:46:03;;;;;;;9.13;2.30;;;9.30;99.90;;;;;;5029160;28;20513;-53
2023/01/12 10:48:31;;;;;;;7.70;2.73;;;9.10;99.90;;;;;;5035265;28;20515;-52
2023/01/12 10:50:59;;;;;;;5.43;2.13;;;8.90;99.90;;;;;;5029941;28;20558;-51
2023/01/12 10:53:31;;;;;;;9.57;2.43;;;8.90;96.50;;;;;;5036494;28;20458;-51
2023/01/12 10:56:01;;;;;;;8.13;2.20;;;8.70;77.60;;;;;;5032423;28;20525;-52
2023/01/12 10:58:32;;;;;;;7.27;1.80;;;8.60;62.20;;;;;;5023527;28;20513;-52
2023/01/12 11:00:59;;;;;;;9.23;2.43;;;8.50;58.90;;;;;;5031897;28;20466;-51
2023/01/12 11:03:31;;;;;;;8.20;2.20;;;8.50;46.60;;;;;;5030471;28;20569;-52
2023/01/12 11:06:15;;;;;;;6.60;2.20;;;8.40;44.40;;;;;;5031205;28;20522;-52
2023/01/12 11:08:41;;;;;;;23.27;3.97;;;8.50;42.00;;;;;;5025745;28;20492;-52
2023/01/12 11:11:16;;;;;;;5.47;2.33;;;8.40;30.80;;;;;;5022349;28;20560;-51
2023/01/12 11:13:45;;;;;;;8.53;2.17;;;8.40;24.00;;;;;;5024347;28;20456;-52
2023/01/12 11:16:18;;;;;;;3.30;1.77;;;8.30;99.10;;;;;;5032085;28;20461;-51
2023/01/12 11:18:50;;;;;;;3.17;1.90;;;8.20;99.90;;;;;;5029608;28;20578;-52
2023/01/12 11:21:21;;;;;;;6.20;2.53;;;8.10;99.90;;;;;;5019963;28;20507;-51
2023/01/12 11:23:56;;;;;;;3.10;2.03;;;8.00;99.90;;;;;;5018809;28;20552;-51
2023/01/12 11:26:26;;;;;;;4.93;1.90;;;8.00;99.90;;;;;;5029618;28;20914;-51
2023/01/12 11:28:59;;;;;;;4.73;2.10;;;7.90;99.90;;;;;;5020758;28;20935;-53
2023/01/12 11:31:30;;;;;;;6.30;2.47;;;7.90;99.90;;;;;;5026878;28;21041;-51
2023/01/12 11:34:01;;;;;;;5.87;1.90;;;7.80;99.90;;;;;;5023055;28;20544;-51
2023/01/12 11:36:31;;;;;;;12.63;2.70;;;7.90;99.90;;;;;;5028981;28;20517;-52
2023/01/12 11:39:03;;;;;;;4.33;1.77;;;7.80;99.90;;;;;;5029490;28;20510;-53
2023/01/12 11:41:35;;;;;;;3.23;2.10;;;7.90;99.90;;;;;;5024267;28;20521;-52
2023/01/12 11:44:08;;;;;;;7.93;2.57;;;7.90;99.90;;;;;;5025935;28;20457;-52
2023/01/12 11:46:41;;;;;;;9.80;3.33;;;8.00;99.90;;;;;;5028676;28;20485;-51
2023/01/12 11:49:14;;;;;;;4.10;2.30;;;8.10;99.90;;;;;;5030590;28;20490;-52
2023/01/12 11:51:41;;;;;;;5.60;1.83;;;8.10;99.90;;;;;;5030433;28;20478;-52
2023/01/12 11:54:14;;;;;;;5.10;2.23;;;8.20;99.90;;;;;;5029729;28;20545;-51
2023/01/12 11:57:07;;;;;;;5.83;2.03;;;8.30;99.90;;;;;;5025527;28;20499;-52
2023/01/12 11:59:41;;;;;;;5.33;2.20;;;8.30;99.90;;;;;;5028553;28;20470;-52
2023/01/12 12:02:23;;;;;;;3.13;1.50;;;8.30;99.90;;;;;;5031048;28;20573;-52
2023/01/12 12:05:02;;;;;;;6.40;2.60;;;8.40;99.90;;;;;;5028268;28;20931;-52
2023/01/12 12:07:42;;;;;;;9.17;3.37;;;8.40;99.90;;;;;;5024757;28;20543;-52
2023/01/12 12:10:21;;;;;;;9.50;2.93;;;8.40;99.90;;;;;;5030432;28;20533;-52
2023/01/12 12:13:12;;;;;;;3.50;1.53;;;8.50;99.90;;;;;;5029171;28;20501;-52
2023/01/12 12:15:46;;;;;;;4.03;2.13;;;8.50;75.40;;;;;;5018583;28;20517;-52
2023/01/12 12:18:20;;;;;;;4.77;1.97;;;8.50;20.90;;;;;;5025137;28;20486;-52
2023/01/12 12:20:58;;;;;;;3.00;1.60;;;8.60;26.50;;;;;;5023694;28;20496;-53
2023/01/12 12:23:31;;;;;;;2.70;1.90;;;8.60;29.80;;;;;;5028984;28;20528;-53
2023/01/12 12:26:09;;;;;;;4.50;1.43;;;8.70;32.20;;;;;;5029475;28;20568;-53
2023/01/12 12:28:52;;;;;;;2.80;1.33;;;8.70;38.40;;;;;;5025607;28;20576;-52
2023/01/12 12:31:40;;;;;;;9.53;2.43;;;8.80;39.70;;;;;;5026911;28;20565;-52
2023/01/12 12:34:42;;;;;;;3.37;1.60;;;8.90;57.30;;;;;;5029410;28;20512;-52
2023/01/12 12:37:19;;;;;;;1.87;1.17;;;9.00;56.40;;;;;;5023122;28;20457;-52
2023/01/12 12:39:53;;;;;;;2.70;1.40;;;9.00;62.40;;;;;;5030467;28;20521;-52
2023/01/12 12:45:42;;;;;;;5.67;1.33;;;9.10;65.60;;;;;;5027307;28;20498;-52
2023/01/12 12:48:15;;;;;;;3.33;1.63;;;9.10;64.90;;;;;;5029879;28;20577;-52
2023/01/12 12:50:48;;;;;;;2.60;1.60;;;9.00;61.70;;;;;;5024097;28;20501;-52
2023/01/12 12:53:21;;;;;;;2.60;1.40;;;9.10;64.40;;;;;;5030108;28;20495;-53
2023/01/12 12:55:49;;;;;;;1.47;1.30;;;9.10;72.30;;;;;;5030727;28;20497;-53
2023/01/12 12:58:28;;;;;;;4.60;1.07;;;9.10;70.70;;;;;;5028484;28;20668;-52
2023/01/12 13:00:59;;;;;;;2.40;1.20;;;9.20;81.40;;;;;;5031292;28;20485;-51
2023/01/12 13:03:48;;;;;;;5.30;1.17;;;9.20;80.80;;;;;;5023321;28;20585;-53
2023/01/12 13:06:21;;;;;;;2.33;1.43;;;9.20;78.70;;;;;;5026995;28;21065;-53
2023/01/12 13:08:50;;;;;;;1.93;1.00;;;9.30;87.80;;;;;;5029878;28;20573;-53
2023/01/12 13:11:16;;;;;;;6.67;2.83;;;9.30;88.40;;;;;;5030825;28;20465;-53
2023/01/12 13:13:58;;;;;;;3.97;1.40;;;9.30;87.80;;;;;;5027642;28;20490;-53
2023/01/12 13:16:47;;;;;;;1.67;1.20;;;9.30;83.80;;;;;;5030023;28;20488;-53
2023/01/12 13:19:36;;;;;;;1.73;1.57;;;9.30;89.30;;;;;;5025689;28;20565;-52
2023/01/12 13:22:28;;;;;;;2.00;1.53;;;9.30;87.30;;;;;;5028264;28;20493;-52
2023/01/12 13:24:55;;;;;;;1.27;0.83;;;9.30;90.50;;;;;;5027122;28;20501;-52
2023/01/12 13:27:46;;;;;;;2.97;1.43;;;9.30;95.80;;;;;;5026499;28;20525;-52
2023/01/12 13:30:21;;;;;;;4.73;1.33;;;9.40;91.00;;;;;;5030097;28;20493;-53
2023/01/12 13:32:57;;;;;;;1.67;0.80;;;9.40;93.90;;;;;;5025497;28;20593;-52
2023/01/12 13:35:44;;;;;;;2.00;1.03;;;9.40;98.40;;;;;;5030341;28;20450;-51
2023/01/12 13:38:18;;;;;;;1.73;1.03;;;9.40;99.90;;;;;;5030815;28;20493;-52
2023/01/12 13:40:45;;;;;;;2.83;1.10;;;9.40;97.70;;;;;;5031036;28;20554;-52
2023/01/12 13:43:18;;;;;;;1.37;1.27;;;9.40;99.90;;;;;;5030731;28;20486;-52
2023/01/12 13:45:55;;;;;;;2.20;1.33;;;9.50;99.90;;;;;;5026355;28;20460;-52